sensor_id;sensor_type;location;lat;lon;timestamp;P1;durP1;ratioP1;P2;durP2;ratioP2
21202;SDS011;10759;51.982;9.232;2022-12-18T00:00:05;90.07;;;54.40;;
21202;SDS011;10759;51.982;9.232;2022-12-18T00:02:39;57.78;;;40.60;;
21202;SDS011;10759;51.982;9.232;2022-12-18T00:05:07;57.63;;;40.05;;
21202;SDS011;10759;51.982;9.232;2022-12-18T00:07:35;60.65;;;41.78;;
21202;SDS011;10759;51.982;9.232;2022-12-18T00:10:04;60.97;;;42.35;;
21202;SDS011;10759;51.982;9.232;2022-12-18T00:12:32;56.63;;;38.42;;
21202;SDS011;10759;51.982;9.232;2022-12-18T00:15:00;58.13;;;39.53;;
21202;SDS011;10759;51.982;9.232;2022-12-18T00:17:30;52.22;;;36.92;;
21202;SDS011;10759;51.982;9.232;2022-12-18T00:19:59;39.20;;;30.75;;
21202;SDS011;10759;51.982;9.232;2022-12-18T00:22:27;47.13;;;32.47;;
21202;SDS011;10759;51.982;9.232;2022-12-18T00:24:55;42.58;;;32.88;;
21202;SDS011;10759;51.982;9.232;2022-12-18T00:27:23;36.92;;;30.25;;
21202;SDS011;10759;51.982;9.232;2022-12-18T00:29:51;42.55;;;32.83;;
21202;SDS011;10759;51.982;9.232;2022-12-18T00:32:19;35.67;;;28.48;;
21202;SDS011;10759;51.982;9.232;2022-12-18T00:34:48;36.83;;;28.27;;
21202;SDS011;10759;51.982;9.232;2022-12-18T00:37:16;38.72;;;27.42;;
21202;SDS011;10759;51.982;9.232;2022-12-18T00:39:49;34.25;;;29.27;;
21202;SDS011;10759;51.982;9.232;2022-12-18T00:42:18;50.97;;;38.42;;
21202;SDS011;10759;51.982;9.232;2022-12-18T00:45:04;47.47;;;37.10;;
21202;SDS011;10759;51.982;9.232;2022-12-18T00:47:38;52.60;;;36.75;;
21202;SDS011;10759;51.982;9.232;2022-12-18T00:50:08;63.20;;;48.42;;
21202;SDS011;10759;51.982;9.232;2022-12-18T00:52:37;55.35;;;43.00;;
21202;SDS011;10759;51.982;9.232;2022-12-18T00:55:08;61.17;;;43.88;;
21202;SDS011;10759;51.982;9.232;2022-12-18T00:57:36;58.15;;;42.95;;
21202;SDS011;10759;51.982;9.232;2022-12-18T01:00:06;53.97;;;41.83;;
21202;SDS011;10759;51.982;9.232;2022-12-18T01:02:36;51.72;;;40.60;;
21202;SDS011;10759;51.982;9.232;2022-12-18T01:10:04;67.57;;;49.53;;
21202;SDS011;10759;51.982;9.232;2022-12-18T01:12:34;76.40;;;55.50;;
21202;SDS011;10759;51.982;9.232;2022-12-18T01:15:03;70.65;;;50.78;;
21202;SDS011;10759;51.982;9.232;2022-12-18T01:17:33;70.00;;;52.67;;
21202;SDS011;10759;51.982;9.232;2022-12-18T01:20:01;71.30;;;51.05;;
21202;SDS011;10759;51.982;9.232;2022-12-18T01:22:32;47.83;;;37.53;;
21202;SDS011;10759;51.982;9.232;2022-12-18T01:25:00;33.70;;;27.50;;
21202;SDS011;10759;51.982;9.232;2022-12-18T01:27:30;28.20;;;23.70;;
21202;SDS011;10759;51.982;9.232;2022-12-18T01:29:58;25.30;;;22.02;;
21202;SDS011;10759;51.982;9.232;2022-12-18T01:32:28;30.10;;;26.00;;
21202;SDS011;10759;51.982;9.232;2022-12-18T01:34:57;22.60;;;19.50;;
21202;SDS011;10759;51.982;9.232;2022-12-18T01:37:26;20.77;;;18.75;;
21202;SDS011;10759;51.982;9.232;2022-12-18T01:39:55;18.38;;;16.48;;
21202;SDS011;10759;51.982;9.232;2022-12-18T01:42:23;17.40;;;15.70;;
21202;SDS011;10759;51.982;9.232;2022-12-18T01:44:54;17.80;;;15.95;;
21202;SDS011;10759;51.982;9.232;2022-12-18T01:47:25;16.63;;;14.93;;
21202;SDS011;10759;51.982;9.232;2022-12-18T01:49:56;15.25;;;13.80;;
21202;SDS011;10759;51.982;9.232;2022-12-18T01:52:28;15.15;;;13.45;;
21202;SDS011;10759;51.982;9.232;2022-12-18T01:54:59;15.63;;;14.13;;
21202;SDS011;10759;51.982;9.232;2022-12-18T01:57:29;16.23;;;14.52;;
21202;SDS011;10759;51.982;9.232;2022-12-18T01:59:59;16.02;;;13.95;;
21202;SDS011;10759;51.982;9.232;2022-12-18T02:02:38;14.95;;;13.57;;
21202;SDS011;10759;51.982;9.232;2022-12-18T02:05:08;16.17;;;13.57;;
21202;SDS011;10759;51.982;9.232;2022-12-18T02:07:41;15.73;;;14.02;;
21202;SDS011;10759;51.982;9.232;2022-12-18T02:10:17;14.50;;;13.00;;
21202;SDS011;10759;51.982;9.232;2022-12-18T02:12:52;15.07;;;13.68;;
21202;SDS011;10759;51.982;9.232;2022-12-18T02:15:28;15.13;;;13.55;;
21202;SDS011;10759;51.982;9.232;2022-12-18T02:18:02;14.50;;;13.05;;
21202;SDS011;10759;51.982;9.232;2022-12-18T02:20:36;15.85;;;13.35;;
21202;SDS011;10759;51.982;9.232;2022-12-18T02:23:11;14.10;;;12.75;;
21202;SDS011;10759;51.982;9.232;2022-12-18T02:26:00;14.05;;;12.75;;
21202;SDS011;10759;51.982;9.232;2022-12-18T02:28:34;14.10;;;12.68;;
21202;SDS011;10759;51.982;9.232;2022-12-18T02:31:07;14.48;;;13.07;;
21202;SDS011;10759;51.982;9.232;2022-12-18T02:33:39;15.98;;;13.57;;
21202;SDS011;10759;51.982;9.232;2022-12-18T02:36:09;13.85;;;12.38;;
21202;SDS011;10759;51.982;9.232;2022-12-18T02:38:42;14.20;;;12.80;;
21202;SDS011;10759;51.982;9.232;2022-12-18T02:41:16;14.73;;;13.23;;
21202;SDS011;10759;51.982;9.232;2022-12-18T02:43:49;13.65;;;12.10;;
21202;SDS011;10759;51.982;9.232;2022-12-18T02:46:25;14.75;;;13.25;;
21202;SDS011;10759;51.982;9.232;2022-12-18T02:49:02;15.33;;;13.73;;
21202;SDS011;10759;51.982;9.232;2022-12-18T02:51:44;15.73;;;14.23;;
21202;SDS011;10759;51.982;9.232;2022-12-18T02:54:21;15.95;;;14.35;;
21202;SDS011;10759;51.982;9.232;2022-12-18T02:57:05;16.35;;;14.23;;
21202;SDS011;10759;51.982;9.232;2022-12-18T02:59:47;15.27;;;13.68;;
21202;SDS011;10759;51.982;9.232;2022-12-18T03:02:23;16.38;;;14.15;;
21202;SDS011;10759;51.982;9.232;2022-12-18T03:04:59;18.38;;;16.00;;
21202;SDS011;10759;51.982;9.232;2022-12-18T03:07:34;18.20;;;16.33;;
21202;SDS011;10759;51.982;9.232;2022-12-18T03:10:09;19.10;;;15.68;;
21202;SDS011;10759;51.982;9.232;2022-12-18T03:12:44;17.92;;;15.52;;
21202;SDS011;10759;51.982;9.232;2022-12-18T03:15:19;17.33;;;15.13;;
21202;SDS011;10759;51.982;9.232;2022-12-18T03:17:59;23.30;;;17.80;;
21202;SDS011;10759;51.982;9.232;2022-12-18T03:20:31;19.08;;;16.85;;
21202;SDS011;10759;51.982;9.232;2022-12-18T03:23:03;21.73;;;17.55;;
21202;SDS011;10759;51.982;9.232;2022-12-18T03:25:34;22.35;;;18.80;;
21202;SDS011;10759;51.982;9.232;2022-12-18T03:28:08;20.77;;;18.10;;
21202;SDS011;10759;51.982;9.232;2022-12-18T03:30:41;20.15;;;16.95;;
21202;SDS011;10759;51.982;9.232;2022-12-18T03:33:14;18.60;;;15.73;;
21202;SDS011;10759;51.982;9.232;2022-12-18T03:35:49;19.38;;;16.35;;
21202;SDS011;10759;51.982;9.232;2022-12-18T03:38:18;17.35;;;15.00;;
21202;SDS011;10759;51.982;9.232;2022-12-18T03:40:52;25.00;;;18.73;;
21202;SDS011;10759;51.982;9.232;2022-12-18T03:43:38;22.48;;;19.15;;
21202;SDS011;10759;51.982;9.232;2022-12-18T03:46:15;22.58;;;17.67;;
21202;SDS011;10759;51.982;9.232;2022-12-18T03:48:52;22.27;;;18.15;;
21202;SDS011;10759;51.982;9.232;2022-12-18T03:51:28;22.17;;;18.75;;
21202;SDS011;10759;51.982;9.232;2022-12-18T03:54:05;21.15;;;18.27;;
21202;SDS011;10759;51.982;9.232;2022-12-18T03:56:42;18.42;;;16.38;;
21202;SDS011;10759;51.982;9.232;2022-12-18T03:59:16;25.55;;;19.30;;
21202;SDS011;10759;51.982;9.232;2022-12-18T04:01:47;21.63;;;16.73;;
21202;SDS011;10759;51.982;9.232;2022-12-18T04:04:19;20.70;;;17.52;;
21202;SDS011;10759;51.982;9.232;2022-12-18T04:06:49;15.85;;;14.20;;
21202;SDS011;10759;51.982;9.232;2022-12-18T04:09:22;15.65;;;14.05;;
21202;SDS011;10759;51.982;9.232;2022-12-18T04:11:52;14.68;;;13.18;;
21202;SDS011;10759;51.982;9.232;2022-12-18T04:14:21;16.25;;;14.55;;
21202;SDS011;10759;51.982;9.232;2022-12-18T04:16:53;14.25;;;12.82;;
21202;SDS011;10759;51.982;9.232;2022-12-18T04:19:27;13.90;;;12.50;;
21202;SDS011;10759;51.982;9.232;2022-12-18T04:21:56;14.30;;;12.95;;
21202;SDS011;10759;51.982;9.232;2022-12-18T04:24:25;15.38;;;13.88;;
21202;SDS011;10759;51.982;9.232;2022-12-18T04:27:04;15.63;;;12.77;;
21202;SDS011;10759;51.982;9.232;2022-12-18T04:29:40;15.93;;;14.25;;
21202;SDS011;10759;51.982;9.232;2022-12-18T04:32:08;15.30;;;13.55;;
21202;SDS011;10759;51.982;9.232;2022-12-18T04:34:37;16.10;;;14.50;;
21202;SDS011;10759;51.982;9.232;2022-12-18T04:37:05;15.70;;;13.70;;
21202;SDS011;10759;51.982;9.232;2022-12-18T04:39:34;15.93;;;13.52;;
21202;SDS011;10759;51.982;9.232;2022-12-18T04:42:08;16.00;;;14.27;;
21202;SDS011;10759;51.982;9.232;2022-12-18T04:44:40;16.05;;;14.38;;
21202;SDS011;10759;51.982;9.232;2022-12-18T04:47:08;13.98;;;12.60;;
21202;SDS011;10759;51.982;9.232;2022-12-18T04:49:36;16.02;;;14.27;;
21202;SDS011;10759;51.982;9.232;2022-12-18T04:52:04;16.17;;;14.65;;
21202;SDS011;10759;51.982;9.232;2022-12-18T04:54:35;15.15;;;13.43;;
21202;SDS011;10759;51.982;9.232;2022-12-18T04:57:03;14.40;;;13.00;;
21202;SDS011;10759;51.982;9.232;2022-12-18T04:59:31;14.70;;;13.38;;
21202;SDS011;10759;51.982;9.232;2022-12-18T05:02:00;15.40;;;13.77;;
21202;SDS011;10759;51.982;9.232;2022-12-18T05:04:28;14.40;;;13.00;;
21202;SDS011;10759;51.982;9.232;2022-12-18T05:06:56;14.75;;;13.13;;
21202;SDS011;10759;51.982;9.232;2022-12-18T05:09:24;14.23;;;12.75;;
21202;SDS011;10759;51.982;9.232;2022-12-18T05:11:52;15.20;;;13.60;;
21202;SDS011;10759;51.982;9.232;2022-12-18T05:14:20;14.73;;;13.35;;
21202;SDS011;10759;51.982;9.232;2022-12-18T05:16:49;15.48;;;13.88;;
21202;SDS011;10759;51.982;9.232;2022-12-18T05:21:48;15.48;;;13.75;;
21202;SDS011;10759;51.982;9.232;2022-12-18T05:24:16;17.17;;;15.48;;
21202;SDS011;10759;51.982;9.232;2022-12-18T05:26:44;16.92;;;14.73;;
21202;SDS011;10759;51.982;9.232;2022-12-18T05:29:12;16.58;;;14.88;;
21202;SDS011;10759;51.982;9.232;2022-12-18T05:31:40;15.07;;;13.57;;
21202;SDS011;10759;51.982;9.232;2022-12-18T05:34:08;14.82;;;13.27;;
21202;SDS011;10759;51.982;9.232;2022-12-18T05:36:38;16.45;;;14.85;;
21202;SDS011;10759;51.982;9.232;2022-12-18T05:39:06;15.43;;;13.80;;
21202;SDS011;10759;51.982;9.232;2022-12-18T05:41:34;17.20;;;15.40;;
21202;SDS011;10759;51.982;9.232;2022-12-18T05:44:02;16.15;;;14.60;;
21202;SDS011;10759;51.982;9.232;2022-12-18T05:46:31;15.75;;;13.98;;
21202;SDS011;10759;51.982;9.232;2022-12-18T05:48:59;17.08;;;14.52;;
21202;SDS011;10759;51.982;9.232;2022-12-18T05:51:27;15.15;;;13.55;;
21202;SDS011;10759;51.982;9.232;2022-12-18T05:53:56;14.50;;;13.18;;
21202;SDS011;10759;51.982;9.232;2022-12-18T05:56:24;15.38;;;13.73;;
21202;SDS011;10759;51.982;9.232;2022-12-18T05:58:53;18.27;;;16.48;;
21202;SDS011;10759;51.982;9.232;2022-12-18T06:01:21;16.73;;;15.05;;
21202;SDS011;10759;51.982;9.232;2022-12-18T06:06:19;17.27;;;15.43;;
21202;SDS011;10759;51.982;9.232;2022-12-18T06:08:48;16.85;;;15.15;;
21202;SDS011;10759;51.982;9.232;2022-12-18T06:11:19;17.63;;;15.90;;
21202;SDS011;10759;51.982;9.232;2022-12-18T06:13:49;20.52;;;16.45;;
21202;SDS011;10759;51.982;9.232;2022-12-18T06:16:23;16.05;;;14.48;;
21202;SDS011;10759;51.982;9.232;2022-12-18T06:18:52;18.05;;;16.10;;
21202;SDS011;10759;51.982;9.232;2022-12-18T06:21:20;15.02;;;13.52;;
21202;SDS011;10759;51.982;9.232;2022-12-18T06:23:48;17.67;;;14.27;;
21202;SDS011;10759;51.982;9.232;2022-12-18T06:26:16;16.50;;;14.23;;
21202;SDS011;10759;51.982;9.232;2022-12-18T06:28:51;16.45;;;14.73;;
21202;SDS011;10759;51.982;9.232;2022-12-18T06:31:19;17.65;;;14.93;;
21202;SDS011;10759;51.982;9.232;2022-12-18T06:33:47;15.68;;;14.10;;
21202;SDS011;10759;51.982;9.232;2022-12-18T06:36:15;16.02;;;14.05;;
21202;SDS011;10759;51.982;9.232;2022-12-18T06:38:44;16.90;;;14.00;;
21202;SDS011;10759;51.982;9.232;2022-12-18T06:41:12;15.70;;;14.20;;
21202;SDS011;10759;51.982;9.232;2022-12-18T06:46:11;15.80;;;14.20;;
21202;SDS011;10759;51.982;9.232;2022-12-18T06:48:40;17.38;;;15.18;;
21202;SDS011;10759;51.982;9.232;2022-12-18T06:51:08;17.73;;;14.55;;
21202;SDS011;10759;51.982;9.232;2022-12-18T06:53:36;16.38;;;14.80;;
21202;SDS011;10759;51.982;9.232;2022-12-18T06:56:05;15.82;;;14.35;;
21202;SDS011;10759;51.982;9.232;2022-12-18T06:58:36;17.13;;;14.52;;
21202;SDS011;10759;51.982;9.232;2022-12-18T07:01:04;16.17;;;14.50;;
21202;SDS011;10759;51.982;9.232;2022-12-18T07:03:36;15.85;;;14.30;;
21202;SDS011;10759;51.982;9.232;2022-12-18T07:06:05;15.00;;;13.48;;
21202;SDS011;10759;51.982;9.232;2022-12-18T07:08:33;14.80;;;13.30;;
21202;SDS011;10759;51.982;9.232;2022-12-18T07:11:02;16.90;;;13.70;;
21202;SDS011;10759;51.982;9.232;2022-12-18T07:13:31;15.90;;;13.93;;
21202;SDS011;10759;51.982;9.232;2022-12-18T07:16:03;17.38;;;15.77;;
21202;SDS011;10759;51.982;9.232;2022-12-18T07:18:42;15.68;;;14.07;;
21202;SDS011;10759;51.982;9.232;2022-12-18T07:21:11;15.23;;;13.63;;
21202;SDS011;10759;51.982;9.232;2022-12-18T07:23:40;15.63;;;13.32;;
21202;SDS011;10759;51.982;9.232;2022-12-18T07:26:09;15.23;;;13.68;;
21202;SDS011;10759;51.982;9.232;2022-12-18T07:31:07;15.73;;;14.20;;
21202;SDS011;10759;51.982;9.232;2022-12-18T07:33:38;17.33;;;14.73;;
21202;SDS011;10759;51.982;9.232;2022-12-18T07:36:09;15.50;;;13.98;;
21202;SDS011;10759;51.982;9.232;2022-12-18T07:38:38;17.83;;;15.20;;
21202;SDS011;10759;51.982;9.232;2022-12-18T07:41:07;19.60;;;17.50;;
21202;SDS011;10759;51.982;9.232;2022-12-18T07:43:37;30.75;;;24.33;;
21202;SDS011;10759;51.982;9.232;2022-12-18T07:46:07;32.80;;;27.17;;
21202;SDS011;10759;51.982;9.232;2022-12-18T07:48:38;27.00;;;22.83;;
21202;SDS011;10759;51.982;9.232;2022-12-18T07:51:09;32.58;;;25.92;;
21202;SDS011;10759;51.982;9.232;2022-12-18T07:53:40;32.30;;;26.33;;
21202;SDS011;10759;51.982;9.232;2022-12-18T07:56:10;35.95;;;28.13;;
21202;SDS011;10759;51.982;9.232;2022-12-18T07:58:57;32.90;;;26.95;;
21202;SDS011;10759;51.982;9.232;2022-12-18T08:01:26;31.98;;;28.50;;
21202;SDS011;10759;51.982;9.232;2022-12-18T08:03:54;31.42;;;27.48;;
21202;SDS011;10759;51.982;9.232;2022-12-18T08:06:24;35.88;;;29.63;;
21202;SDS011;10759;51.982;9.232;2022-12-18T08:08:52;31.70;;;28.35;;
21202;SDS011;10759;51.982;9.232;2022-12-18T08:11:21;34.60;;;30.85;;
21202;SDS011;10759;51.982;9.232;2022-12-18T08:13:49;31.27;;;27.92;;
21202;SDS011;10759;51.982;9.232;2022-12-18T08:16:18;29.92;;;27.00;;
21202;SDS011;10759;51.982;9.232;2022-12-18T08:18:46;35.10;;;31.35;;
21202;SDS011;10759;51.982;9.232;2022-12-18T08:21:16;35.63;;;29.58;;
21202;SDS011;10759;51.982;9.232;2022-12-18T08:23:48;42.13;;;32.70;;
21202;SDS011;10759;51.982;9.232;2022-12-18T08:26:17;46.47;;;37.58;;
21202;SDS011;10759;51.982;9.232;2022-12-18T08:28:48;37.40;;;32.80;;
21202;SDS011;10759;51.982;9.232;2022-12-18T08:31:17;35.50;;;29.35;;
21202;SDS011;10759;51.982;9.232;2022-12-18T08:33:48;33.28;;;29.65;;
21202;SDS011;10759;51.982;9.232;2022-12-18T08:36:16;39.50;;;35.28;;
21202;SDS011;10759;51.982;9.232;2022-12-18T08:38:45;40.40;;;33.92;;
21202;SDS011;10759;51.982;9.232;2022-12-18T08:41:15;38.28;;;33.85;;
21202;SDS011;10759;51.982;9.232;2022-12-18T08:43:45;33.78;;;30.17;;
21202;SDS011;10759;51.982;9.232;2022-12-18T08:46:33;32.28;;;28.95;;
21202;SDS011;10759;51.982;9.232;2022-12-18T08:49:03;28.02;;;25.02;;
21202;SDS011;10759;51.982;9.232;2022-12-18T08:51:32;29.77;;;25.50;;
21202;SDS011;10759;51.982;9.232;2022-12-18T08:54:00;29.10;;;26.00;;
21202;SDS011;10759;51.982;9.232;2022-12-18T08:56:36;32.20;;;28.40;;
21202;SDS011;10759;51.982;9.232;2022-12-18T08:59:04;31.77;;;27.90;;
21202;SDS011;10759;51.982;9.232;2022-12-18T09:01:32;29.17;;;26.02;;
21202;SDS011;10759;51.982;9.232;2022-12-18T09:04:01;30.50;;;25.63;;
21202;SDS011;10759;51.982;9.232;2022-12-18T09:06:30;41.58;;;36.38;;
21202;SDS011;10759;51.982;9.232;2022-12-18T09:09:03;36.33;;;31.48;;
21202;SDS011;10759;51.982;9.232;2022-12-18T09:11:32;51.83;;;41.10;;
21202;SDS011;10759;51.982;9.232;2022-12-18T09:14:02;56.75;;;44.78;;
21202;SDS011;10759;51.982;9.232;2022-12-18T09:16:30;53.10;;;41.88;;
21202;SDS011;10759;51.982;9.232;2022-12-18T09:18:59;50.03;;;40.07;;
21202;SDS011;10759;51.982;9.232;2022-12-18T09:21:28;43.25;;;35.38;;
21202;SDS011;10759;51.982;9.232;2022-12-18T09:24:01;30.60;;;26.65;;
21202;SDS011;10759;51.982;9.232;2022-12-18T09:26:34;29.17;;;26.02;;
21202;SDS011;10759;51.982;9.232;2022-12-18T09:29:04;29.20;;;26.00;;
21202;SDS011;10759;51.982;9.232;2022-12-18T09:31:34;34.00;;;27.17;;
21202;SDS011;10759;51.982;9.232;2022-12-18T09:34:05;27.52;;;24.60;;
21202;SDS011;10759;51.982;9.232;2022-12-18T09:36:33;37.03;;;27.35;;
21202;SDS011;10759;51.982;9.232;2022-12-18T09:39:02;32.25;;;28.90;;
21202;SDS011;10759;51.982;9.232;2022-12-18T09:41:44;35.58;;;30.52;;
21202;SDS011;10759;51.982;9.232;2022-12-18T09:44:20;28.08;;;25.15;;
21202;SDS011;10759;51.982;9.232;2022-12-18T09:46:53;29.70;;;25.52;;
21202;SDS011;10759;51.982;9.232;2022-12-18T09:49:27;29.38;;;24.33;;
21202;SDS011;10759;51.982;9.232;2022-12-18T09:51:59;28.73;;;24.05;;
21202;SDS011;10759;51.982;9.232;2022-12-18T09:54:33;25.92;;;23.15;;
21202;SDS011;10759;51.982;9.232;2022-12-18T09:57:14;28.20;;;23.33;;
21202;SDS011;10759;51.982;9.232;2022-12-18T09:59:47;26.30;;;23.50;;
21202;SDS011;10759;51.982;9.232;2022-12-18T10:02:26;27.27;;;24.30;;
21202;SDS011;10759;51.982;9.232;2022-12-18T10:05:02;35.75;;;28.23;;
21202;SDS011;10759;51.982;9.232;2022-12-18T10:07:42;37.15;;;30.05;;
21202;SDS011;10759;51.982;9.232;2022-12-18T10:10:30;37.45;;;29.58;;
21202;SDS011;10759;51.982;9.232;2022-12-18T10:13:15;27.67;;;23.45;;
21202;SDS011;10759;51.982;9.232;2022-12-18T10:15:58;26.27;;;22.02;;
21202;SDS011;10759;51.982;9.232;2022-12-18T10:18:42;22.40;;;20.00;;
21202;SDS011;10759;51.982;9.232;2022-12-18T10:21:26;19.13;;;17.23;;
21202;SDS011;10759;51.982;9.232;2022-12-18T10:24:01;19.45;;;17.45;;
21202;SDS011;10759;51.982;9.232;2022-12-18T10:26:35;21.50;;;19.30;;
21202;SDS011;10759;51.982;9.232;2022-12-18T10:29:04;17.17;;;14.77;;
21202;SDS011;10759;51.982;9.232;2022-12-18T10:31:39;16.77;;;15.05;;
21202;SDS011;10759;51.982;9.232;2022-12-18T10:34:08;17.45;;;15.63;;
21202;SDS011;10759;51.982;9.232;2022-12-18T10:36:37;20.80;;;15.25;;
21202;SDS011;10759;51.982;9.232;2022-12-18T10:39:15;28.42;;;21.35;;
21202;SDS011;10759;51.982;9.232;2022-12-18T10:41:50;19.67;;;17.63;;
21202;SDS011;10759;51.982;9.232;2022-12-18T10:44:19;18.25;;;15.52;;
21202;SDS011;10759;51.982;9.232;2022-12-18T10:47:03;18.17;;;16.35;;
21202;SDS011;10759;51.982;9.232;2022-12-18T10:49:37;17.40;;;15.60;;
21202;SDS011;10759;51.982;9.232;2022-12-18T10:52:14;17.35;;;14.85;;
21202;SDS011;10759;51.982;9.232;2022-12-18T10:54:46;19.98;;;16.80;;
21202;SDS011;10759;51.982;9.232;2022-12-18T10:57:19;18.63;;;14.95;;
21202;SDS011;10759;51.982;9.232;2022-12-18T10:59:58;20.33;;;16.48;;
21202;SDS011;10759;51.982;9.232;2022-12-18T11:02:33;18.25;;;16.33;;
21202;SDS011;10759;51.982;9.232;2022-12-18T11:05:10;23.40;;;18.58;;
21202;SDS011;10759;51.982;9.232;2022-12-18T11:07:53;11.60;;;10.43;;
21202;SDS011;10759;51.982;9.232;2022-12-18T11:10:24;19.27;;;17.23;;
21202;SDS011;10759;51.982;9.232;2022-12-18T11:12:56;15.45;;;13.80;;
21202;SDS011;10759;51.982;9.232;2022-12-18T11:15:36;15.88;;;14.25;;
21202;SDS011;10759;51.982;9.232;2022-12-18T11:18:14;14.50;;;12.70;;
21202;SDS011;10759;51.982;9.232;2022-12-18T11:20:50;15.00;;;13.40;;
21202;SDS011;10759;51.982;9.232;2022-12-18T11:23:24;11.35;;;10.35;;
21202;SDS011;10759;51.982;9.232;2022-12-18T11:25:54;12.52;;;10.77;;
21202;SDS011;10759;51.982;9.232;2022-12-18T11:28:25;13.43;;;12.10;;
21202;SDS011;10759;51.982;9.232;2022-12-18T11:31:11;13.93;;;10.68;;
21202;SDS011;10759;51.982;9.232;2022-12-18T11:33:46;11.18;;;10.07;;
21202;SDS011;10759;51.982;9.232;2022-12-18T11:36:41;12.10;;;10.88;;
21202;SDS011;10759;51.982;9.232;2022-12-18T11:39:13;13.63;;;12.18;;
21202;SDS011;10759;51.982;9.232;2022-12-18T11:41:47;15.30;;;13.90;;
21202;SDS011;10759;51.982;9.232;2022-12-18T11:44:41;10.02;;;9.15;;
21202;SDS011;10759;51.982;9.232;2022-12-18T11:47:18;9.27;;;8.30;;
21202;SDS011;10759;51.982;9.232;2022-12-18T11:49:54;14.68;;;10.95;;
21202;SDS011;10759;51.982;9.232;2022-12-18T11:52:26;12.93;;;11.68;;
21202;SDS011;10759;51.982;9.232;2022-12-18T11:55:00;12.25;;;10.85;;
21202;SDS011;10759;51.982;9.232;2022-12-18T11:57:36;12.57;;;11.32;;
21202;SDS011;10759;51.982;9.232;2022-12-18T12:00:11;14.30;;;12.90;;
21202;SDS011;10759;51.982;9.232;2022-12-18T12:02:56;17.40;;;15.80;;
21202;SDS011;10759;51.982;9.232;2022-12-18T12:05:48;20.95;;;18.95;;
21202;SDS011;10759;51.982;9.232;2022-12-18T12:08:28;16.55;;;14.85;;
21202;SDS011;10759;51.982;9.232;2022-12-18T12:11:07;13.65;;;11.93;;
21202;SDS011;10759;51.982;9.232;2022-12-18T12:13:46;13.15;;;11.85;;
21202;SDS011;10759;51.982;9.232;2022-12-18T12:16:32;11.93;;;10.73;;
21202;SDS011;10759;51.982;9.232;2022-12-18T12:19:10;15.65;;;9.82;;
21202;SDS011;10759;51.982;9.232;2022-12-18T12:21:53;8.88;;;8.07;;
21202;SDS011;10759;51.982;9.232;2022-12-18T12:24:33;9.55;;;8.52;;
21202;SDS011;10759;51.982;9.232;2022-12-18T12:27:11;10.93;;;9.82;;
21202;SDS011;10759;51.982;9.232;2022-12-18T12:29:47;14.07;;;10.20;;
21202;SDS011;10759;51.982;9.232;2022-12-18T12:32:30;11.38;;;10.00;;
21202;SDS011;10759;51.982;9.232;2022-12-18T12:35:13;10.15;;;8.88;;
21202;SDS011;10759;51.982;9.232;2022-12-18T12:37:54;9.35;;;8.52;;
21202;SDS011;10759;51.982;9.232;2022-12-18T12:40:33;9.57;;;8.40;;
21202;SDS011;10759;51.982;9.232;2022-12-18T12:43:22;8.45;;;7.45;;
21202;SDS011;10759;51.982;9.232;2022-12-18T12:45:57;8.85;;;8.05;;
21202;SDS011;10759;51.982;9.232;2022-12-18T12:48:32;8.70;;;7.90;;
21202;SDS011;10759;51.982;9.232;2022-12-18T12:51:08;9.90;;;9.00;;
21202;SDS011;10759;51.982;9.232;2022-12-18T12:53:43;10.30;;;9.30;;
21202;SDS011;10759;51.982;9.232;2022-12-18T12:56:13;9.48;;;8.60;;
21202;SDS011;10759;51.982;9.232;2022-12-18T12:58:51;10.40;;;9.07;;
21202;SDS011;10759;51.982;9.232;2022-12-18T13:01:28;9.45;;;8.43;;
21202;SDS011;10759;51.982;9.232;2022-12-18T13:04:08;11.02;;;9.93;;
21202;SDS011;10759;51.982;9.232;2022-12-18T13:06:50;11.90;;;10.88;;
21202;SDS011;10759;51.982;9.232;2022-12-18T13:09:30;11.55;;;10.45;;
21202;SDS011;10759;51.982;9.232;2022-12-18T13:12:02;11.13;;;10.02;;
21202;SDS011;10759;51.982;9.232;2022-12-18T13:14:49;11.27;;;10.02;;
21202;SDS011;10759;51.982;9.232;2022-12-18T13:17:27;11.77;;;10.65;;
21202;SDS011;10759;51.982;9.232;2022-12-18T13:20:05;19.25;;;13.52;;
21202;SDS011;10759;51.982;9.232;2022-12-18T13:22:38;11.05;;;10.05;;
21202;SDS011;10759;51.982;9.232;2022-12-18T13:25:30;22.33;;;18.60;;
21202;SDS011;10759;51.982;9.232;2022-12-18T13:28:12;10.50;;;9.30;;
21202;SDS011;10759;51.982;9.232;2022-12-18T13:30:46;10.48;;;9.48;;
21202;SDS011;10759;51.982;9.232;2022-12-18T13:36:32;13.70;;;12.40;;
21202;SDS011;10759;51.982;9.232;2022-12-18T13:41:39;13.75;;;12.20;;
21202;SDS011;10759;51.982;9.232;2022-12-18T13:44:12;11.85;;;10.75;;
21202;SDS011;10759;51.982;9.232;2022-12-18T13:46:54;9.05;;;7.70;;
21202;SDS011;10759;51.982;9.232;2022-12-18T13:49:24;9.73;;;8.88;;
21202;SDS011;10759;51.982;9.232;2022-12-18T13:52:14;11.05;;;10.05;;
21202;SDS011;10759;51.982;9.232;2022-12-18T13:54:47;11.27;;;10.23;;
21202;SDS011;10759;51.982;9.232;2022-12-18T13:57:28;11.02;;;9.98;;
21202;SDS011;10759;51.982;9.232;2022-12-18T13:59:58;10.10;;;9.07;;
21202;SDS011;10759;51.982;9.232;2022-12-18T14:02:44;11.45;;;10.32;;
21202;SDS011;10759;51.982;9.232;2022-12-18T14:05:21;12.48;;;11.27;;
21202;SDS011;10759;51.982;9.232;2022-12-18T14:07:50;10.57;;;9.57;;
21202;SDS011;10759;51.982;9.232;2022-12-18T14:10:21;11.20;;;10.00;;
21202;SDS011;10759;51.982;9.232;2022-12-18T14:13:14;16.60;;;12.80;;
21202;SDS011;10759;51.982;9.232;2022-12-18T14:15:47;11.98;;;10.55;;
21202;SDS011;10759;51.982;9.232;2022-12-18T14:18:19;12.38;;;11.13;;
21202;SDS011;10759;51.982;9.232;2022-12-18T14:20:52;12.70;;;11.38;;
21202;SDS011;10759;51.982;9.232;2022-12-18T14:23:26;12.73;;;11.32;;
21202;SDS011;10759;51.982;9.232;2022-12-18T14:25:56;12.25;;;10.90;;
21202;SDS011;10759;51.982;9.232;2022-12-18T14:28:32;13.75;;;12.32;;
21202;SDS011;10759;51.982;9.232;2022-12-18T14:31:01;15.73;;;12.98;;
21202;SDS011;10759;51.982;9.232;2022-12-18T14:33:30;12.63;;;11.32;;
21202;SDS011;10759;51.982;9.232;2022-12-18T14:36:02;11.20;;;10.15;;
21202;SDS011;10759;51.982;9.232;2022-12-18T14:38:32;12.07;;;10.88;;
21202;SDS011;10759;51.982;9.232;2022-12-18T14:41:05;18.02;;;15.45;;
21202;SDS011;10759;51.982;9.232;2022-12-18T14:43:40;19.45;;;16.92;;
21202;SDS011;10759;51.982;9.232;2022-12-18T14:48:55;16.98;;;15.25;;
21202;SDS011;10759;51.982;9.232;2022-12-18T14:51:24;16.20;;;13.80;;
21202;SDS011;10759;51.982;9.232;2022-12-18T14:53:54;14.02;;;12.35;;
21202;SDS011;10759;51.982;9.232;2022-12-18T14:56:24;15.70;;;12.13;;
21202;SDS011;10759;51.982;9.232;2022-12-18T15:01:26;11.63;;;10.52;;
21202;SDS011;10759;51.982;9.232;2022-12-18T15:03:57;13.45;;;12.10;;
21202;SDS011;10759;51.982;9.232;2022-12-18T15:06:27;12.40;;;11.00;;
21202;SDS011;10759;51.982;9.232;2022-12-18T15:08:57;10.43;;;9.32;;
21202;SDS011;10759;51.982;9.232;2022-12-18T15:11:27;10.07;;;8.93;;
21202;SDS011;10759;51.982;9.232;2022-12-18T15:14:03;10.95;;;8.50;;
21202;SDS011;10759;51.982;9.232;2022-12-18T15:16:51;9.45;;;8.48;;
21202;SDS011;10759;51.982;9.232;2022-12-18T15:19:21;9.30;;;8.40;;
21202;SDS011;10759;51.982;9.232;2022-12-18T15:21:50;11.82;;;10.63;;